Arkansaw, WI

10:10 AM CDT on August 30, 2014 (GMT -0500)
SIGHT-SEA-ER II | Change Station
CLOSE
Current Station
Personal Weather Station
Location: Lake City, MN
Elevation: 728 ft
Nearby Weather Stations

Elev 728 ft 44.47 °N, 92.30 °W | Updated 1 minute ago

Overcast
Overcast
67.8 °F
Feels Like 67.8 °F
N
5.0
Wind Variable Wind from NNW
Gusts 10.0 mph

Today
High -- | Low -- °F
--% Chance of Precip.
Yesterday
High -- | Low -- °F
Precip. -- in
6:28 AM 7:48 PM
Waxing Crescent, 22% visible
Pressure 29.81 in
Visibility 10.0 miles
Clouds Scattered Clouds 1000 ft
Overcast 1600 ft
Dew Point 66 °F
Humidity 93%
Rainfall 0.02 in
Snow Depth Not available.
UV 1 out of 12
Pollen 5.40 out of 12
Air Quality Not available.
Flu Activity Not available.
METAR KRGK 301455Z AUTO 32004KT 10SM SCT010 OVC016 20/18 A2981 RMK AO2

More Conditions Fewer Conditions

Pressure 29.81 in
Visibility 10.0 miles
Clouds Scattered Clouds 1000 ft
Overcast 1600 ft
Dew Point 66 °F
Humidity 93%
Rainfall 0.02 in
Snow Depth Not available.
UV 1 out of 12
Pollen 5.40 out of 12
Air Quality Not available.
Flu Activity Not available.
METAR KRGK 301455Z AUTO 32004KT 10SM SCT010 OVC016 20/18 A2981 RMK AO2

More Conditions Fewer Conditions

10-Day Weather Forecast

Almanac

Astronomy

Aug. 30, 2014 Rise Set
Actual Time 6:28 AM CDT 7:48 PM CDT
Civil Twilight 5:58 AM CDT 8:18 PM CDT
Nautical Twilight 5:21 AM CDT 8:54 PM CDT
Astronomical Twilight 4:42 AM CDT 9:33 PM CDT
Moon 11:29 AM CDT 10:09 PM CDT
Length of Visible Light 14h 20m
Length of Day
13h 20m
Tomorrow will be 2m 59s shorter.
Waxing Crescent, 22% of the Moon is Illuminated
Today
Waxing Crescent
Sep 2
First Quarter
Sep 8
Full
Sep 15
Last Quarter
Sep 24
New

Today's Extremes

State Highs State Lows

Community

WunderPhotos

Upload Photos

1,748,543 photos uploaded!

WunderBlogs® & News

Nearby

Snow Depth

Station Depth Elevation
No new snow has been reported.

Earthquake Activity

City Distance Mag. Time & Date
No recent earthquake activity has been reported nearby.
Minimum magnitude displayed is 2.5.

Coastal Water Temperatures

Place Temperature
No Stations Reporting

Nearby Weather Stations